Time;durP1;ratioP1;P1;durP2;ratioP2;P2;SDS_P1;SDS_P2;PMS_P1;PMS_P2;Temp;Humidity;BMP_temperature;BMP_pressure;BME280_temperature;BME280_humidity;BME280_pressure;Samples;Min_cycle;Max_cycle;Signal;HPM_P1;HPM_P2
2021/04/15 00:00:46;;;;;;;8.23;6.20;;;;;;;5.84;68.73;101017.30;2858716;82;21169;-59
2021/04/15 00:04:50;;;;;;;11.33;5.97;;;;;;;6.00;68.16;101016.52;2877755;81;21121;-60
2021/04/15 00:08:55;;;;;;;11.38;5.28;;;;;;;6.09;68.02;101012.59;2908707;81;21453;-59
2021/04/15 00:13:00;;;;;;;9.65;6.33;;;;;;;6.25;67.99;101000.75;2908390;81;21575;-59
2021/04/15 00:17:04;;;;;;;8.48;6.00;;;;;;;6.38;67.84;101000.95;2908470;81;21140;-60
2021/04/15 00:21:10;;;;;;;9.55;5.95;;;;;;;6.56;67.57;101001.30;2908405;80;21622;-59
2021/04/15 00:25:14;;;;;;;10.28;5.20;;;;;;;6.77;67.53;101002.39;2908755;81;21144;-61
2021/04/15 00:29:18;;;;;;;10.88;6.25;;;;;;;7.04;67.58;101004.48;2908568;81;21132;-60
2021/04/15 00:33:22;;;;;;;8.83;4.87;;;;;;;7.28;66.87;101002.25;2908796;81;21149;-61
2021/04/15 00:37:26;;;;;;;9.90;6.55;;;;;;;7.40;66.70;101003.80;2908540;81;21172;-60
2021/04/15 00:41:32;;;;;;;14.63;8.28;;;;;;;7.44;65.28;100997.39;2908856;81;21152;-60
2021/04/15 00:45:39;;;;;;;;;;;;;;;7.43;65.76;100994.36;2911343;81;21108;-60
2021/04/15 00:49:48;;;;;;;13.93;10.35;;;;;;;7.51;65.42;100996.12;2908875;81;20175;-61
2021/04/15 00:53:58;;;;;;;15.10;9.80;;;;;;;7.49;66.09;100991.38;2907699;81;21109;-61
2021/04/15 00:58:04;;;;;;;10.03;8.15;;;;;;;7.55;66.59;100994.98;2908281;81;21057;-60
2021/04/15 01:02:13;;;;;;;10.72;7.22;;;;;;;7.48;67.00;100993.65;2909098;81;21148;-61
2021/04/15 01:06:18;;;;;;;11.08;7.08;;;;;;;7.44;66.79;100990.77;2908635;81;21172;-60
2021/04/15 01:10:25;;;;;;;10.43;6.25;;;;;;;7.48;67.77;100992.78;2887058;80;21156;-60
2021/04/15 01:14:56;;;;;;;11.43;7.80;;;;;;;7.46;67.84;100988.05;2893263;81;21112;-59
2021/04/15 01:19:45;;;;;;;9.60;6.33;;;;;;;7.60;67.68;100974.00;2895366;81;21112;-62
2021/04/15 01:24:07;;;;;;;10.68;6.10;;;;;;;7.69;67.52;100982.75;2859033;83;21129;-61
2021/04/15 01:28:37;;;;;;;7.70;5.25;;;;;;;7.69;67.56;100974.31;2774574;85;21173;-59
2021/04/15 01:32:57;;;;;;;11.33;5.85;;;;;;;7.57;67.36;100975.89;2821785;84;21141;-60
2021/04/15 01:37:12;;;;;;;12.20;4.65;;;;;;;7.43;67.62;100977.16;2821247;84;21666;-60
2021/04/15 01:41:21;;;;;;;10.72;5.83;;;;;;;7.20;67.28;100975.36;2784894;84;21717;-61
2021/04/15 01:45:25;;;;;;;7.37;5.15;;;;;;;6.90;67.60;100976.16;2821749;84;21151;-60
2021/04/15 01:49:35;;;;;;;9.65;5.58;;;;;;;6.85;68.15;100970.24;2796019;83;21161;-60
2021/04/15 01:53:50;;;;;;;13.45;6.00;;;;;;;6.80;68.42;100968.33;2821548;83;21187;-61
2021/04/15 01:58:16;;;;;;;10.50;6.12;;;;;;;6.69;68.45;100963.63;2820451;84;21176;-60
2021/04/15 02:02:28;;;;;;;8.07;5.07;;;;;;;6.59;68.43;100961.96;2821596;84;21168;-59
2021/04/15 02:06:36;;;;;;;9.10;5.08;;;;;;;6.62;68.84;100964.43;2820661;84;21737;-59
2021/04/15 02:10:44;;;;;;;8.53;4.87;;;;;;;6.59;68.83;100957.99;2821356;84;21121;-60
2021/04/15 02:15:12;;;;;;;15.68;6.35;;;;;;;6.51;68.52;100954.44;2821172;84;21169;-61
2021/04/15 02:19:24;;;;;;;12.85;5.75;;;;;;;6.42;68.71;100953.15;2820019;84;21149;-61
2021/04/15 02:23:51;;;;;;;6.65;4.95;;;;;;;6.38;68.90;100955.58;2821634;83;21168;-60
2021/04/15 02:28:04;;;;;;;;;;;;;;;6.30;68.92;100957.79;2823933;84;21132;-60
2021/04/15 02:32:18;;;;;;;9.15;5.92;;;;;;;6.16;68.74;100956.34;2908610;81;20179;-60
2021/04/15 02:36:26;;;;;;;5.97;4.25;;;;;;;6.06;69.07;100955.96;2868734;81;21176;-59
2021/04/15 02:40:52;;;;;;;6.58;4.17;;;;;;;5.93;69.38;100951.76;2858707;83;21108;-59
2021/04/15 02:45:04;;;;;;;7.12;5.42;;;;;;;5.78;69.55;100955.56;2858524;81;21153;-60
2021/04/15 02:49:12;;;;;;;8.45;4.25;;;;;;;5.66;69.93;100950.90;2858453;83;21121;-60
2021/04/15 02:53:24;;;;;;;5.87;4.37;;;;;;;5.49;70.38;100949.13;2858601;83;21124;-59
2021/04/15 02:57:35;;;;;;;9.65;4.62;;;;;;;5.23;71.11;100956.06;2858678;83;21156;-59
2021/04/15 03:01:43;;;;;;;6.15;5.55;;;;;;;5.11;71.75;100951.38;2867630;80;21626;-58
2021/04/15 03:05:54;;;;;;;7.85;4.33;;;;;;;5.03;72.40;100952.22;2863329;81;21140;-60
2021/04/15 03:10:01;;;;;;;7.22;5.25;;;;;;;5.00;72.64;100960.67;2907415;80;21137;-59
2021/04/15 03:14:13;;;;;;;7.33;4.28;;;;;;;4.98;73.02;100959.02;2888190;81;21168;-60
2021/04/15 03:18:42;;;;;;;9.63;4.25;;;;;;;4.98;73.49;100958.58;2834280;82;21128;-60
2021/04/15 03:22:56;;;;;;;6.75;4.35;;;;;;;5.03;72.56;100962.77;2858541;82;21164;-61
2021/04/15 03:27:11;;;;;;;12.70;6.95;;;;;;;4.94;72.74;100960.97;2834220;83;21145;-61
2021/04/15 03:31:20;;;;;;;18.48;8.00;;;;;;;4.92;72.60;100964.15;2858825;82;21187;-61
2021/04/15 03:35:47;;;;;;;8.88;5.25;;;;;;;4.91;72.62;100965.05;2858615;83;21160;-61
2021/04/15 03:39:54;;;;;;;5.58;4.22;;;;;;;4.87;72.62;100962.17;2882350;80;21141;-63
2021/04/15 03:44:19;;;;;;;10.85;5.28;;;;;;;4.80;72.48;100962.08;2890887;81;21141;-62
2021/04/15 03:48:28;;;;;;;6.08;5.25;;;;;;;4.76;72.44;100965.79;2889920;80;21140;-63
2021/04/15 03:53:01;;;;;;;10.98;6.15;;;;;;;4.65;72.45;100970.24;2866810;81;21128;-63
2021/04/15 03:57:10;;;;;;;9.73;5.67;;;;;;;4.60;72.71;100963.86;2908828;80;21164;-62
2021/04/15 04:01:21;;;;;;;17.32;8.03;;;;;;;4.69;72.59;100966.05;2880705;80;21156;-62
2021/04/15 04:05:31;;;;;;;12.60;7.97;;;;;;;4.68;72.19;100969.62;2878439;81;21124;-63
2021/04/15 04:09:40;;;;;;;6.78;5.03;;;;;;;4.73;72.57;100965.46;2908444;81;21170;-64
2021/04/15 04:13:52;;;;;;;8.13;5.45;;;;;;;4.67;72.49;100969.70;2897486;80;21155;-64
2021/04/15 04:18:03;;;;;;;9.50;4.08;;;;;;;4.63;72.56;100963.71;2885825;80;21124;-65
2021/04/15 04:22:50;;;;;;;6.62;3.83;;;;;;;4.56;72.72;100964.93;2856488;82;21140;-63
2021/04/15 04:27:19;;;;;;;8.43;5.97;;;;;;;4.50;73.07;100966.06;2853934;83;21176;-66
2021/04/15 04:31:27;;;;;;;6.35;4.70;;;;;;;4.40;73.56;100965.63;2877183;80;21548;-64
2021/04/15 04:35:36;;;;;;;18.05;5.17;;;;;;;4.37;73.66;100968.84;2860098;80;21626;-63
2021/04/15 04:39:41;;;;;;;5.72;3.60;;;;;;;4.40;74.28;100975.29;2886411;82;21132;-63
2021/04/15 04:43:50;;;;;;;9.35;4.17;;;;;;;4.53;73.83;100976.94;2903571;82;21145;-63
2021/04/15 04:48:32;;;;;;;4.40;2.80;;;;;;;4.55;73.77;100977.72;2902943;82;21587;-63
2021/04/15 04:52:37;;;;;;;6.20;4.05;;;;;;;4.54;73.82;100982.59;2911422;80;21524;-63
2021/04/15 04:56:49;;;;;;;5.53;4.10;;;;;;;4.57;73.85;100981.13;2950518;80;21608;-63
2021/04/15 05:00:56;;;;;;;6.65;3.40;;;;;;;4.62;74.22;100988.80;2949708;80;21106;-63
2021/04/15 05:05:09;;;;;;;5.08;3.40;;;;;;;4.68;73.79;100990.70;2950239;80;21684;-63
2021/04/15 05:09:36;;;;;;;5.55;2.92;;;;;;;4.74;73.88;100991.37;2949691;80;21137;-63
2021/04/15 05:13:43;;;;;;;6.95;3.37;;;;;;;4.76;74.01;100990.83;2950211;79;21220;-63
2021/04/15 05:17:47;;;;;;;3.33;2.65;;;;;;;4.83;74.04;100990.92;2950471;80;21122;-63
2021/04/15 05:21:53;;;;;;;6.00;3.87;;;;;;;4.87;74.05;100997.77;2950523;79;21138;-62
2021/04/15 05:26:10;;;;;;;5.58;3.45;;;;;;;4.90;73.83;100994.97;2950411;80;21411;-64
2021/04/15 05:30:36;;;;;;;8.58;2.55;;;;;;;4.89;74.32;100989.80;2950605;80;21145;-63
2021/04/15 05:34:48;;;;;;;5.10;3.80;;;;;;;4.88;74.42;100990.24;2950819;80;21134;-63
2021/04/15 05:38:56;;;;;;;5.05;3.83;;;;;;;4.94;74.02;100990.42;2950379;80;21647;-63
2021/04/15 05:43:31;;;;;;;6.15;2.22;;;;;;;5.02;74.59;100992.70;2950281;80;21113;-62
2021/04/15 05:47:50;;;;;;;4.85;4.03;;;;;;;5.06;73.95;100987.67;2950997;80;21125;-63
2021/04/15 05:52:02;;;;;;;6.10;3.22;;;;;;;5.15;74.77;100993.84;2949365;80;21130;-63
2021/04/15 05:56:28;;;;;;;3.70;2.60;;;;;;;5.13;74.80;100989.11;2949976;80;21170;-63
2021/04/15 06:00:48;;;;;;;4.72;3.05;;;;;;;5.14;74.69;100989.50;2950022;80;21591;-64
2021/04/15 06:05:21;;;;;;;6.83;3.25;;;;;;;5.22;74.40;100992.61;2950365;80;21137;-63
2021/04/15 06:09:25;;;;;;;4.92;2.37;;;;;;;5.22;74.60;100993.92;2950387;80;22202;-63
2021/04/15 06:13:34;;;;;;;3.90;2.47;;;;;;;5.19;75.23;100988.80;2950264;80;21122;-63
2021/04/15 06:17:53;;;;;;;3.42;2.37;;;;;;;5.12;75.69;100984.76;2921029;80;21560;-64
2021/04/15 06:22:21;;;;;;;2.45;1.72;;;;;;;5.15;77.07;100989.88;2946057;80;22211;-63
2021/04/15 06:26:49;;;;;;;3.98;2.65;;;;;;;5.13;76.95;100988.63;2938287;80;21126;-62
2021/04/15 06:31:17;;;;;;;5.72;2.90;;;;;;;4.91;78.16;100990.57;2938544;81;21094;-63
2021/04/15 06:35:27;;;;;;;4.17;2.67;;;;;;;4.77;79.26;100987.27;2938407;80;21106;-62
2021/04/15 06:39:38;;;;;;;2.98;2.22;;;;;;;4.42;80.39;100988.80;2938441;81;21153;-63
2021/04/15 06:44:10;;;;;;;7.15;3.98;;;;;;;4.25;81.97;100987.38;2938566;80;21175;-63
2021/04/15 06:49:09;;;;;;;5.55;3.98;;;;;;;4.26;82.56;100983.81;2938449;81;21170;-62
2021/04/15 06:53:38;;;;;;;5.03;2.90;;;;;;;4.27;83.21;100981.57;2938369;81;21584;-63
2021/04/15 06:57:59;;;;;;;8.98;4.33;;;;;;;4.34;83.55;100978.20;2938311;80;21552;-63
2021/04/15 07:02:31;;;;;;;3.47;2.90;;;;;;;4.43;83.90;100975.17;2938615;81;21586;-62
2021/04/15 07:06:58;;;;;;;4.83;3.22;;;;;;;4.56;83.85;100978.95;2938626;80;21137;-62
2021/04/15 07:11:42;;;;;;;11.18;5.65;;;;;;;4.66;83.17;100978.06;2910843;81;21170;-62
2021/04/15 07:16:33;;;;;;;8.10;3.98;;;;;;;4.61;83.57;100973.47;2938645;81;21604;-62
2021/04/15 07:21:19;;;;;;;15.78;6.62;;;;;;;4.56;83.31;100975.47;2938528;80;21142;-62
2021/04/15 07:25:52;;;;;;;7.78;4.33;;;;;;;4.43;84.28;100972.55;2938857;81;22151;-62
2021/04/15 07:30:01;;;;;;;9.80;6.42;;;;;;;4.39;84.81;100969.63;2938673;81;21165;-62
2021/04/15 07:34:39;;;;;;;5.55;3.37;;;;;;;4.48;84.67;100971.00;2938332;81;21071;-62
2021/04/15 07:39:01;;;;;;;3.62;2.90;;;;;;;4.51;84.60;100968.22;2938467;81;21114;-62
2021/04/15 07:43:44;;;;;;;6.25;4.47;;;;;;;4.47;84.74;100964.02;2937464;81;21110;-62
2021/04/15 07:48:30;;;;;;;6.58;5.20;;;;;;;4.48;85.01;100957.82;2938751;81;21130;-62
2021/04/15 07:52:57;;;;;;;4.22;3.72;;;;;;;4.65;85.73;100963.17;2938581;81;21146;-63
2021/04/15 07:57:40;;;;;;;5.42;4.70;;;;;;;4.65;84.68;100957.91;2931955;81;21145;-62
2021/04/15 08:02:28;;;;;;;7.05;3.20;;;;;;;4.68;85.10;100952.48;2929837;81;21121;-62
2021/04/15 08:07:12;;;;;;;8.30;5.97;;;;;;;4.78;84.67;100963.94;2904946;82;21152;-63
2021/04/15 08:11:47;;;;;;;6.28;4.65;;;;;;;4.66;83.99;100967.52;2905057;81;21133;-63
2021/04/15 08:16:22;;;;;;;4.65;3.60;;;;;;;4.57;84.57;100961.37;2905015;81;21172;-63
2021/04/15 08:20:51;;;;;;;3.87;2.55;;;;;;;4.62;85.16;100963.33;2904860;81;21896;-63
2021/04/15 08:25:07;;;;;;;4.05;3.67;;;;;;;4.71;84.71;100960.73;2904224;81;21156;-62
2021/04/15 08:29:45;;;;;;;2.15;2.02;;;;;;;4.80;85.32;100955.01;2904003;81;21168;-62
2021/04/15 08:34:11;;;;;;;4.70;3.72;;;;;;;4.86;85.00;100965.73;2905311;81;21156;-62
2021/04/15 08:38:41;;;;;;;3.25;1.95;;;;;;;5.09;85.46;100949.28;2930790;81;21134;-63
2021/04/15 08:43:13;;;;;;;3.22;2.17;;;;;;;5.06;84.55;100945.48;2904815;81;21128;-62
2021/04/15 08:47:42;;;;;;;2.55;2.20;;;;;;;4.96;84.53;100953.84;2904923;81;21176;-63
2021/04/15 08:52:28;;;;;;;5.03;2.67;;;;;;;4.92;84.63;100950.97;2904864;81;21156;-63
2021/04/15 08:56:57;;;;;;;3.40;2.95;;;;;;;4.86;84.95;100942.01;2899057;82;21156;-63
2021/04/15 09:01:12;;;;;;;5.45;3.35;;;;;;;4.88;85.18;100944.59;2881400;82;21144;-63
2021/04/15 09:05:55;;;;;;;7.10;5.80;;;;;;;4.86;85.69;100944.64;2904888;81;21553;-63
2021/04/15 09:10:13;;;;;;;5.35;4.62;;;;;;;4.87;85.78;100935.81;2904871;82;21609;-63
2021/04/15 09:14:40;;;;;;;5.42;4.83;;;;;;;4.88;85.04;100940.15;2905119;82;21160;-63
2021/04/15 09:18:55;;;;;;;5.08;4.28;;;;;;;4.81;85.57;100942.22;2905148;81;21144;-63
2021/04/15 09:23:21;;;;;;;5.47;3.02;;;;;;;4.83;85.76;100935.12;2929405;80;21161;-62
2021/04/15 09:27:53;;;;;;;4.03;2.33;;;;;;;4.85;85.68;100935.03;2931059;81;21169;-62
2021/04/15 09:32:30;;;;;;;2.62;1.90;;;;;;;4.76;85.42;100938.11;2930747;81;21572;-62
2021/04/15 09:37:15;;;;;;;2.58;2.05;;;;;;;4.75;85.52;100936.41;3065641;77;22606;-62
2021/04/15 09:41:51;;;;;;;;;;;;;;;4.66;85.74;100927.15;3022842;78;21156;-61
2021/04/15 09:46:31;;;;;;;4.35;4.00;;;;;;;4.56;85.90;100940.73;2966234;80;20190;-62
2021/04/15 09:51:11;;;;;;;2.92;2.33;;;;;;;4.64;86.51;100934.28;2966150;80;21614;-61
2021/04/15 09:55:51;;;;;;;4.05;2.95;;;;;;;4.61;86.99;100927.36;2966016;80;21133;-63
2021/04/15 10:00:20;;;;;;;2.58;2.37;;;;;;;4.61;87.09;100915.95;2966272;80;21145;-62
2021/04/15 10:04:41;;;;;;;2.85;2.65;;;;;;;4.62;86.99;100907.98;2966187;80;21148;-62
2021/04/15 10:08:58;;;;;;;3.87;2.40;;;;;;;4.68;87.10;100906.84;2966063;80;21069;-63
2021/04/15 10:13:07;;;;;;;2.95;2.67;;;;;;;4.83;87.28;100901.30;2965495;80;21106;-63
2021/04/15 10:17:39;;;;;;;3.90;3.20;;;;;;;4.83;87.04;100889.44;2965612;80;21137;-63
2021/04/15 10:21:59;;;;;;;5.83;4.00;;;;;;;4.75;86.99;100904.78;2964948;80;21133;-63
2021/04/15 10:26:48;;;;;;;5.05;3.15;;;;;;;4.67;86.83;100881.42;2966111;80;21149;-63
2021/04/15 10:31:27;;;;;;;5.62;4.03;;;;;;;4.62;87.49;100891.30;2965962;80;21136;-63
2021/04/15 10:35:51;;;;;;;5.62;4.08;;;;;;;4.76;87.77;100899.41;2966287;80;21101;-63
2021/04/15 10:40:16;;;;;;;5.30;4.78;;;;;;;4.80;87.38;100894.86;2966154;80;21176;-63
2021/04/15 10:44:47;;;;;;;3.30;2.30;;;;;;;4.81;87.49;100896.57;2964490;80;21106;-63
2021/04/15 10:49:11;;;;;;;3.90;3.17;;;;;;;4.77;86.79;100898.48;2965058;80;21587;-63
2021/04/15 10:53:37;;;;;;;5.35;3.37;;;;;;;4.74;87.07;100892.05;2962587;80;21733;-63
2021/04/15 10:57:40;;;;;;;7.70;5.05;;;;;;;4.80;87.74;100898.81;2965229;80;21157;-63
2021/04/15 11:01:48;;;;;;;2.72;2.12;;;;;;;4.84;87.71;100893.33;2964907;80;21673;-63
2021/04/15 11:05:56;;;;;;;2.85;2.55;;;;;;;4.93;87.68;100887.20;2965339;80;21133;-62
2021/04/15 11:10:08;;;;;;;2.98;2.55;;;;;;;4.86;86.95;100895.88;2965221;80;21630;-63
2021/04/15 11:14:12;;;;;;;1.55;1.35;;;;;;;4.97;87.52;100888.77;2964808;80;21578;-63
2021/04/15 11:18:24;;;;;;;3.00;2.75;;;;;;;4.89;86.86;100879.91;2965172;80;22244;-63
2021/04/15 11:22:33;;;;;;;9.50;5.30;;;;;;;4.99;87.75;100878.54;2964730;80;21144;-63
2021/04/15 11:26:50;;;;;;;3.00;1.87;;;;;;;4.97;87.26;100877.77;2964967;80;21551;-63
2021/04/15 11:30:58;;;;;;;2.47;1.60;;;;;;;5.07;86.87;100877.30;2965375;80;21156;-62
2021/04/15 11:35:20;;;;;;;3.58;1.37;;;;;;;5.02;86.44;100877.55;2997073;77;22930;-61
2021/04/15 11:39:28;;;;;;;4.42;2.83;;;;;;;4.97;87.09;100875.58;2951790;80;21142;-61
2021/04/15 11:43:36;;;;;;;5.08;2.75;;;;;;;5.04;87.02;100874.82;2927996;80;21141;-61
2021/04/15 11:47:39;;;;;;;4.05;2.33;;;;;;;5.04;87.46;100870.86;2900389;82;21121;-61
2021/04/15 11:52:04;;;;;;;2.08;1.80;;;;;;;5.06;87.65;100872.50;2900378;81;21117;-62
2021/04/15 11:56:18;;;;;;;2.95;2.22;;;;;;;5.02;87.07;100871.41;2873183;81;21089;-61
2021/04/15 12:00:26;;;;;;;3.25;2.02;;;;;;;5.05;87.69;100843.11;2773205;84;21195;-61
2021/04/15 12:04:29;;;;;;;5.50;4.20;;;;;;;5.04;87.54;100872.18;2854979;83;21148;-61
2021/04/15 12:08:38;;;;;;;3.72;3.42;;;;;;;5.12;87.98;100859.00;2773313;84;21167;-61
2021/04/15 12:12:45;;;;;;;4.72;4.25;;;;;;;5.18;87.61;100856.53;2855240;83;21116;-61
2021/04/15 12:17:14;;;;;;;6.10;4.80;;;;;;;5.16;87.22;100858.40;2773607;84;21163;-61
2021/04/15 12:21:57;;;;;;;2.00;1.75;;;;;;;5.11;87.71;100859.94;2941540;80;21600;-63
2021/04/15 12:26:26;;;;;;;4.20;3.72;;;;;;;5.12;87.48;100851.58;2947934;80;21150;-62
2021/04/15 12:30:33;;;;;;;5.25;4.50;;;;;;;5.24;87.33;100850.94;2947754;80;21145;-63
2021/04/15 12:35:22;;;;;;;2.40;2.20;;;;;;;5.25;87.40;100847.37;2947571;80;21145;-63
2021/04/15 12:39:30;;;;;;;7.28;4.10;;;;;;;5.31;87.65;100849.33;2947954;80;21137;-63
2021/04/15 12:43:44;;;;;;;7.50;4.20;;;;;;;5.36;87.41;100845.98;2909450;80;21113;-63
2021/04/15 12:47:48;;;;;;;3.47;2.83;;;;;;;5.20;86.69;100846.75;2899161;82;21627;-64
2021/04/15 12:52:00;;;;;;;3.95;2.33;;;;;;;5.22;87.18;100847.53;2899230;81;21126;-62
2021/04/15 12:56:06;;;;;;;2.70;2.10;;;;;;;5.19;87.74;100846.37;2899553;81;21126;-62
2021/04/15 13:00:18;;;;;;;3.62;1.92;;;;;;;5.26;87.77;100839.84;2899411;82;21134;-63
2021/04/15 13:04:32;;;;;;;4.53;3.15;;;;;;;5.30;88.14;100844.50;2872044;82;21587;-62
2021/04/15 13:08:41;;;;;;;9.98;6.37;;;;;;;5.42;87.93;100845.21;2899068;82;21188;-63
2021/04/15 13:12:58;;;;;;;3.77;3.00;;;;;;;5.37;87.70;100835.81;2997134;77;22523;-59
2021/04/15 13:17:03;;;;;;;2.00;1.83;;;;;;;5.39;88.45;100841.86;2951861;80;21470;-63
2021/04/15 13:21:11;;;;;;;2.22;2.02;;;;;;;5.35;88.02;100816.58;2951552;80;21777;-62
2021/04/15 13:25:32;;;;;;;1.98;1.52;;;;;;;5.46;86.82;100842.41;2912062;80;21133;-61
2021/04/15 13:29:33;;;;;;;2.55;1.92;;;;;;;5.34;86.63;100837.30;2875965;80;21148;-60
2021/04/15 13:34:05;;;;;;;2.12;1.92;;;;;;;5.29;86.62;100841.48;2904878;80;21200;-59
2021/04/15 13:38:43;;;;;;;1.47;0.90;;;;;;;5.24;86.80;100836.43;2904500;81;21161;-60
2021/04/15 13:42:44;;;;;;;1.45;1.12;;;;;;;5.25;85.74;100834.66;2891901;82;21171;-59
2021/04/15 13:46:48;;;;;;;1.75;1.65;;;;;;;5.36;85.73;100839.39;2855091;83;21146;-61
2021/04/15 13:51:20;;;;;;;2.30;1.35;;;;;;;5.39;86.09;100837.42;2854876;83;21128;-60
2021/04/15 13:55:46;;;;;;;1.52;1.40;;;;;;;5.34;85.57;100830.70;2854831;82;21152;-61
2021/04/15 13:59:54;;;;;;;6.50;3.40;;;;;;;5.22;86.14;100834.82;2852217;82;21124;-60
2021/04/15 14:03:57;;;;;;;4.92;3.08;;;;;;;5.28;87.59;100834.02;2850624;83;21419;-60
2021/04/15 14:08:17;;;;;;;5.08;2.10;;;;;;;5.21;86.86;100835.27;2850878;83;21129;-60
2021/04/15 14:13:02;;;;;;;2.20;1.67;;;;;;;5.09;87.26;100849.06;2841164;83;21599;-60
2021/04/15 14:17:12;;;;;;;1.70;1.22;;;;;;;4.93;87.18;100842.39;2850691;83;21172;-59
2021/04/15 14:21:31;;;;;;;1.67;1.57;;;;;;;4.92;87.64;100839.37;2850437;82;21180;-60
2021/04/15 14:25:38;;;;;;;1.75;1.65;;;;;;;4.90;87.39;100849.97;2849275;83;21149;-59
2021/04/15 14:29:44;;;;;;;3.15;2.35;;;;;;;4.85;87.27;100842.77;2849714;83;21185;-60
2021/04/15 14:33:49;;;;;;;2.10;2.00;;;;;;;4.83;87.94;100851.22;2849729;82;21185;-60
2021/04/15 14:37:52;;;;;;;1.57;1.37;;;;;;;4.80;87.90;100846.09;2849743;83;21129;-59
2021/04/15 14:42:03;;;;;;;4.17;2.05;;;;;;;4.80;88.14;100843.46;2850047;83;21145;-59
2021/04/15 14:46:29;;;;;;;2.27;2.08;;;;;;;4.73;87.49;100846.85;2850018;83;21137;-59
2021/04/15 14:50:38;;;;;;;2.40;2.00;;;;;;;4.79;88.28;100854.94;2850007;83;21153;-60
2021/04/15 14:54:43;;;;;;;2.65;1.42;;;;;;;4.80;88.20;100846.09;2849750;83;21153;-61
2021/04/15 14:58:48;;;;;;;1.22;1.15;;;;;;;4.71;87.80;100836.86;2849685;82;21149;-59
2021/04/15 15:02:55;;;;;;;1.52;1.42;;;;;;;4.65;87.23;100835.36;2849975;83;21157;-59
2021/04/15 15:06:58;;;;;;;3.60;2.67;;;;;;;4.66;88.09;100839.70;2849915;83;21177;-59
2021/04/15 15:11:02;;;;;;;3.85;1.98;;;;;;;4.61;87.88;100835.58;2865987;80;21170;-60
2021/04/15 15:15:09;;;;;;;7.17;4.42;;;;;;;4.48;88.06;100837.95;2957086;80;21180;-59
2021/04/15 15:19:19;;;;;;;3.35;1.85;;;;;;;4.46;88.13;100831.90;2957410;80;21477;-59
2021/04/15 15:23:30;;;;;;;2.77;2.58;;;;;;;4.38;88.34;100827.86;2957290;80;21147;-59
2021/04/15 15:27:37;;;;;;;2.65;1.80;;;;;;;4.42;88.35;100834.69;2957812;80;21459;-60
2021/04/15 15:31:42;;;;;;;2.77;2.22;;;;;;;4.40;88.07;100838.30;2957640;80;21568;-61
2021/04/15 15:35:47;;;;;;;3.47;2.17;;;;;;;4.35;88.21;100838.55;2957710;80;21121;-61
2021/04/15 15:39:52;;;;;;;2.22;1.75;;;;;;;4.32;88.52;100836.51;2953899;80;21134;-59
2021/04/15 15:44:07;;;;;;;5.28;2.17;;;;;;;4.23;88.95;100844.38;2957479;80;21145;-60
2021/04/15 15:48:12;;;;;;;3.92;2.58;;;;;;;4.25;88.56;100835.94;2957380;80;21173;-60
2021/04/15 15:52:20;;;;;;;3.55;2.92;;;;;;;4.25;88.93;100833.30;2957341;80;21172;-60
2021/04/15 15:56:43;;;;;;;2.58;1.77;;;;;;;4.24;88.40;100835.55;2954091;80;21146;-59
2021/04/15 16:00:48;;;;;;;2.75;2.42;;;;;;;4.23;88.89;100833.84;2957664;80;21134;-60
2021/04/15 16:05:01;;;;;;;3.15;2.00;;;;;;;4.18;88.83;100836.68;2957660;80;21145;-60
2021/04/15 16:09:16;;;;;;;3.52;2.90;;;;;;;4.14;88.80;100830.72;2957377;80;21145;-62
2021/04/15 16:13:30;;;;;;;3.92;2.60;;;;;;;4.19;89.10;100827.85;2922398;81;21152;-62
2021/04/15 16:17:34;;;;;;;2.65;2.12;;;;;;;4.13;88.49;100829.02;2922245;81;21152;-60
2021/04/15 16:21:39;;;;;;;3.40;2.47;;;;;;;4.03;88.92;100828.16;2922101;81;21657;-61
2021/04/15 16:25:41;;;;;;;2.27;2.08;;;;;;;4.02;88.85;100818.11;2886456;81;21148;-63
2021/04/15 16:29:49;;;;;;;3.72;3.42;;;;;;;3.99;88.87;100825.67;2871280;82;21152;-60
2021/04/15 16:33:50;;;;;;;2.83;1.85;;;;;;;3.94;88.84;100822.89;2871144;82;21136;-61
2021/04/15 16:38:00;;;;;;;3.30;2.60;;;;;;;3.91;89.14;100816.42;2870916;82;21179;-59
2021/04/15 16:42:05;;;;;;;4.47;3.10;;;;;;;3.90;89.05;100817.34;2871243;82;21144;-60
2021/04/15 16:46:10;;;;;;;2.75;2.55;;;;;;;3.87;88.98;100813.09;2871134;82;21164;-60
2021/04/15 16:50:18;;;;;;;6.83;2.55;;;;;;;3.82;89.23;100811.98;2871032;81;21193;-60
2021/04/15 16:54:22;;;;;;;3.08;2.58;;;;;;;3.75;89.49;100816.27;2871223;82;21152;-60
2021/04/15 16:58:25;;;;;;;1.95;1.85;;;;;;;3.72;89.68;100817.25;2813476;83;21117;-60
2021/04/15 17:02:28;;;;;;;6.17;4.33;;;;;;;3.74;89.77;100810.16;2841949;83;21184;-60
2021/04/15 17:06:32;;;;;;;9.03;4.65;;;;;;;3.76;89.87;100808.31;2813380;83;21546;-59
2021/04/15 17:10:40;;;;;;;3.90;3.60;;;;;;;3.80;89.86;100816.45;2814292;83;21155;-59
2021/04/15 17:14:43;;;;;;;4.03;3.27;;;;;;;3.82;89.67;100807.16;2821109;83;21211;-60
2021/04/15 17:18:47;;;;;;;6.45;4.50;;;;;;;3.83;89.60;100811.50;2884729;82;21140;-60
2021/04/15 17:22:52;;;;;;;3.33;3.02;;;;;;;3.83;89.58;100807.10;2858698;80;21603;-60
2021/04/15 17:26:55;;;;;;;4.12;2.90;;;;;;;3.82;89.60;100805.84;2903916;82;22323;-60
2021/04/15 17:31:00;;;;;;;4.20;2.83;;;;;;;3.84;89.69;100810.13;2904002;81;21124;-59
2021/04/15 17:35:07;;;;;;;4.25;3.52;;;;;;;3.85;89.67;100809.20;2900719;81;21147;-60
2021/04/15 17:39:13;;;;;;;6.10;4.22;;;;;;;3.89;89.69;100811.24;2895638;82;21567;-60
2021/04/15 17:43:17;;;;;;;7.87;3.40;;;;;;;3.88;89.66;100805.59;2901205;80;21133;-61
2021/04/15 17:47:21;;;;;;;4.67;4.05;;;;;;;3.95;89.74;100815.38;2903973;82;21144;-59
2021/04/15 17:51:26;;;;;;;4.33;3.92;;;;;;;3.97;89.48;100814.36;2903844;82;21575;-59
2021/04/15 17:55:33;;;;;;;4.55;4.12;;;;;;;3.97;89.43;100817.47;2904002;81;21128;-59
2021/04/15 17:59:37;;;;;;;3.58;3.27;;;;;;;4.01;89.33;100815.09;2904086;82;21160;-59
2021/04/15 18:03:43;;;;;;;5.12;4.72;;;;;;;4.02;89.26;100817.24;2889332;82;21149;-60
2021/04/15 18:07:45;;;;;;;4.45;3.75;;;;;;;4.01;89.12;100813.77;2854711;83;21152;-60
2021/04/15 18:12:12;;;;;;;5.65;4.58;;;;;;;3.96;88.98;100811.34;2852393;83;21121;-60
2021/04/15 18:16:17;;;;;;;6.20;4.15;;;;;;;3.93;89.01;100816.75;2821725;83;21174;-59
2021/04/15 18:20:26;;;;;;;7.22;4.65;;;;;;;3.93;89.07;100818.06;2822018;83;21146;-60
2021/04/15 18:24:30;;;;;;;8.08;5.28;;;;;;;3.91;89.16;100826.50;2821846;84;21098;-59
2021/04/15 18:28:36;;;;;;;17.82;12.88;;;;;;;3.92;89.26;100827.34;2822096;84;21162;-59
2021/04/15 18:32:41;;;;;;;13.80;8.75;;;;;;;3.97;89.29;100830.64;2821827;84;21226;-60
2021/04/15 18:36:45;;;;;;;7.72;6.97;;;;;;;4.02;89.12;100827.33;2822165;84;21182;-60
2021/04/15 18:40:55;;;;;;;6.55;5.35;;;;;;;4.03;88.89;100824.21;2821097;84;21109;-60
2021/04/15 18:44:58;;;;;;;6.05;4.90;;;;;;;3.98;88.97;100829.71;2818274;84;21155;-60
2021/04/15 18:49:01;;;;;;;5.75;5.20;;;;;;;3.97;89.17;100830.64;2818782;83;21206;-59
2021/04/15 18:53:06;;;;;;;6.97;5.00;;;;;;;3.94;89.28;100834.25;2818046;84;21229;-60
2021/04/15 18:57:09;;;;;;;5.67;3.95;;;;;;;4.00;89.42;100833.97;2820066;84;21640;-59
2021/04/15 19:01:13;;;;;;;7.53;6.12;;;;;;;4.00;89.05;100833.13;2820085;84;21916;-60
2021/04/15 19:05:19;;;;;;;4.75;4.30;;;;;;;3.98;88.97;100832.34;2819259;83;21542;-60
2021/04/15 19:09:25;;;;;;;9.23;6.53;;;;;;;3.97;89.02;100828.00;2771222;85;21157;-60
2021/04/15 19:13:32;;;;;;;6.62;4.62;;;;;;;4.00;89.29;100832.64;2763645;85;21170;-61
2021/04/15 19:17:39;;;;;;;8.03;5.75;;;;;;;4.05;89.10;100828.98;2792843;85;21175;-61
2021/04/15 19:21:43;;;;;;;6.72;3.77;;;;;;;4.08;88.97;100831.46;2792924;84;21179;-60
2021/04/15 19:25:48;;;;;;;9.70;5.40;;;;;;;4.09;88.91;100825.27;2792968;85;21201;-61
2021/04/15 19:29:51;;;;;;;6.20;5.30;;;;;;;4.08;88.69;100823.56;2791778;85;21186;-60
2021/04/15 19:33:54;;;;;;;4.42;3.40;;;;;;;4.07;88.89;100822.70;2762235;86;21209;-60
2021/04/15 19:37:59;;;;;;;7.37;5.78;;;;;;;4.01;88.96;100816.41;2792741;85;21172;-60
2021/04/15 19:42:04;;;;;;;8.85;5.65;;;;;;;3.99;88.89;100820.89;2792577;84;21704;-61
2021/04/15 19:46:08;;;;;;;8.65;6.58;;;;;;;4.00;88.96;100819.96;2792944;85;21159;-61
2021/04/15 19:50:23;;;;;;;10.55;8.33;;;;;;;4.00;89.09;100827.86;2792683;85;21116;-61
2021/04/15 19:54:27;;;;;;;17.37;13.18;;;;;;;3.96;89.16;100822.34;2793009;84;21147;-61
2021/04/15 19:58:41;;;;;;;5.22;3.50;;;;;;;3.96;89.33;100817.09;2792861;84;21151;-61
2021/04/15 20:02:43;;;;;;;11.30;5.22;;;;;;;3.96;89.51;100819.72;2792275;85;22235;-60